createdAt,value
2018-06-25T00:00:01.380Z,0.00
2018-06-25T00:01:01.365Z,0.00
2018-06-25T00:02:01.355Z,0.00
2018-06-25T00:03:01.334Z,0.00
2018-06-25T00:04:01.316Z,0.00
2018-06-25T00:05:01.299Z,0.00
2018-06-25T00:06:01.282Z,0.00
2018-06-25T00:07:01.270Z,0.00
2018-06-25T00:08:01.251Z,0.00
2018-06-25T00:09:01.233Z,0.00
2018-06-25T00:10:01.218Z,0.00
2018-06-25T00:11:01.199Z,0.00
2018-06-25T00:12:01.184Z,0.00
2018-06-25T00:13:01.170Z,0.00
2018-06-25T00:14:01.158Z,0.00
2018-06-25T00:15:01.136Z,0.00
2018-06-25T00:16:01.116Z,0.00
2018-06-25T00:17:01.101Z,0.00
2018-06-25T00:18:01.091Z,0.00
2018-06-25T00:19:01.069Z,0.00
2018-06-25T00:20:01.059Z,0.00
2018-06-25T00:21:01.038Z,0.00
2018-06-25T00:22:01.019Z,0.00
2018-06-25T00:23:01.000Z,0.00
2018-06-25T00:24:00.985Z,0.00
2018-06-25T00:25:00.968Z,0.00
2018-06-25T00:26:00.952Z,0.00
2018-06-25T00:27:00.934Z,0.00
2018-06-25T00:28:00.918Z,0.00
2018-06-25T00:29:00.902Z,0.00
2018-06-25T00:30:00.886Z,0.00
2018-06-25T00:31:00.868Z,0.00
2018-06-25T00:32:00.856Z,0.00
2018-06-25T00:33:00.847Z,0.00
2018-06-25T00:34:00.819Z,0.00
2018-06-25T00:35:00.802Z,0.00
2018-06-25T00:36:00.785Z,0.00
2018-06-25T00:37:00.768Z,0.00
2018-06-25T00:38:00.755Z,0.00
2018-06-25T00:39:00.734Z,0.00
2018-06-25T00:40:00.720Z,0.00
2018-06-25T00:41:00.702Z,0.00
2018-06-25T00:42:00.686Z,0.00
2018-06-25T00:43:00.669Z,0.00
2018-06-25T00:44:00.657Z,0.00
2018-06-25T00:45:00.639Z,0.00
2018-06-25T00:46:00.617Z,0.00
2018-06-25T00:47:00.603Z,0.00
2018-06-25T00:48:00.584Z,0.00
2018-06-25T00:49:00.565Z,0.00
2018-06-25T00:50:00.551Z,0.00
2018-06-25T00:51:00.535Z,0.00
2018-06-25T00:52:00.519Z,0.00
2018-06-25T00:53:00.500Z,0.00
2018-06-25T00:54:00.489Z,0.00
2018-06-25T00:55:00.474Z,0.00
2018-06-25T00:56:00.451Z,0.00
2018-06-25T00:57:00.433Z,0.00
2018-06-25T00:58:00.416Z,0.00
2018-06-25T00:59:00.401Z,0.00
2018-06-25T01:00:00.381Z,0.00
2018-06-25T01:01:00.369Z,0.00
2018-06-25T01:02:00.349Z,0.00
2018-06-25T01:03:00.331Z,0.00
2018-06-25T01:04:00.315Z,0.00
2018-06-25T01:05:00.299Z,0.00
2018-06-25T01:06:00.290Z,0.00
2018-06-25T01:07:00.265Z,0.00
2018-06-25T01:08:00.246Z,0.00
2018-06-25T01:09:00.231Z,0.00
2018-06-25T01:10:00.213Z,0.00
2018-06-25T01:11:00.198Z,0.00
2018-06-25T01:12:00.178Z,0.00
2018-06-25T01:13:00.164Z,0.00
2018-06-25T01:14:00.146Z,0.00
2018-06-25T01:15:00.127Z,0.00
2018-06-25T01:16:00.113Z,0.00
2018-06-25T01:17:00.102Z,0.00
2018-06-25T01:18:00.078Z,0.00
2018-06-25T01:19:00.061Z,0.00
2018-06-25T01:20:00.044Z,0.00
2018-06-25T01:21:00.029Z,0.00
2018-06-25T01:22:00.013Z,0.00
2018-06-25T01:22:59.992Z,0.00
2018-06-25T01:23:59.975Z,0.00
2018-06-25T01:24:59.958Z,0.00
2018-06-25T01:25:59.941Z,0.00
2018-06-25T01:26:59.924Z,0.00
2018-06-25T01:27:59.906Z,0.00
2018-06-25T01:28:59.893Z,0.00
2018-06-25T01:29:59.872Z,0.00
2018-06-25T01:30:59.855Z,0.00
2018-06-25T01:31:59.839Z,0.00
2018-06-25T01:32:59.821Z,0.00
2018-06-25T01:33:59.813Z,0.00
2018-06-25T01:34:59.796Z,0.00
2018-06-25T01:35:59.772Z,0.00
2018-06-25T01:36:59.755Z,0.00
2018-06-25T01:37:59.738Z,0.00
2018-06-25T01:38:59.719Z,0.00
2018-06-25T01:39:59.702Z,0.00
2018-06-25T01:40:59.687Z,0.00
2018-06-25T01:41:59.670Z,0.00
2018-06-25T01:42:59.656Z,0.00
2018-06-25T01:43:59.636Z,0.00
2018-06-25T01:44:59.621Z,0.00
2018-06-25T01:45:59.603Z,0.00
2018-06-25T01:46:59.587Z,0.00
2018-06-25T01:47:59.572Z,0.00
2018-06-25T01:48:59.553Z,0.00
2018-06-25T01:49:59.543Z,0.00
2018-06-25T01:50:59.518Z,0.00
2018-06-25T01:51:59.501Z,0.00
2018-06-25T01:52:59.487Z,0.00
2018-06-25T01:53:59.468Z,0.00
2018-06-25T01:54:59.458Z,0.00
2018-06-25T01:55:59.432Z,0.00
2018-06-25T01:56:59.418Z,0.00
2018-06-25T01:57:59.401Z,0.00
2018-06-25T01:58:59.383Z,0.00
2018-06-25T01:59:59.366Z,0.00
2018-06-25T02:00:59.351Z,0.00
2018-06-25T02:01:59.333Z,4.00
2018-06-25T02:02:59.322Z,4.00
2018-06-25T02:03:59.298Z,4.00
2018-06-25T02:04:59.282Z,0.00
2018-06-25T02:05:59.264Z,0.00
2018-06-25T02:06:59.248Z,0.00
2018-06-25T02:07:59.231Z,4.00
2018-06-25T02:08:59.219Z,4.00
2018-06-25T02:09:59.197Z,4.00
2018-06-25T02:10:59.184Z,4.00
2018-06-25T02:11:59.164Z,4.00
2018-06-25T02:12:59.163Z,8.00
2018-06-25T02:13:59.133Z,4.00
2018-06-25T02:14:59.114Z,4.00
2018-06-25T02:15:59.100Z,8.00
2018-06-25T02:16:59.084Z,4.00
2018-06-25T02:17:59.064Z,8.00
2018-06-25T02:18:59.049Z,8.00
2018-06-25T02:19:59.030Z,8.00
2018-06-25T02:20:59.013Z,12.00
2018-06-25T02:21:58.995Z,12.00
2018-06-25T02:22:58.980Z,12.00
2018-06-25T02:23:58.967Z,16.00
2018-06-25T02:24:58.948Z,16.00
2018-06-25T02:25:58.957Z,20.00
2018-06-25T02:26:58.910Z,24.00
2018-06-25T02:27:58.904Z,28.00
2018-06-25T02:28:58.877Z,24.00
2018-06-25T02:29:58.869Z,28.00
2018-06-25T02:30:58.843Z,36.00
2018-06-25T02:31:58.826Z,36.00
2018-06-25T02:32:58.897Z,40.00
2018-06-25T02:33:58.794Z,44.00
2018-06-25T02:34:58.775Z,48.00
2018-06-25T02:35:58.761Z,48.00
2018-06-25T02:36:58.746Z,52.00
2018-06-25T02:37:58.729Z,56.00
2018-06-25T02:38:58.716Z,60.00
2018-06-25T02:39:58.699Z,60.00
2018-06-25T02:40:58.673Z,64.00
2018-06-25T02:41:58.657Z,68.00
2018-06-25T02:42:58.638Z,80.00
2018-06-25T02:43:58.639Z,88.00
2018-06-25T02:44:58.606Z,96.00
2018-06-25T02:45:58.589Z,100.00
2018-06-25T02:46:58.576Z,104.00
2018-06-25T02:47:58.554Z,108.00
2018-06-25T02:48:58.538Z,120.00
2018-06-25T02:49:58.528Z,128.00
2018-06-25T02:50:58.505Z,136.00
2018-06-25T02:51:58.489Z,144.00
2018-06-25T02:52:58.473Z,148.00
2018-06-25T02:53:58.456Z,152.00
2018-06-25T02:54:58.436Z,152.00
2018-06-25T02:55:58.420Z,160.00
2018-06-25T02:56:58.458Z,164.00
2018-06-25T02:57:58.387Z,168.00
2018-06-25T02:58:58.369Z,184.00
2018-06-25T02:59:58.353Z,192.00
2018-06-25T03:00:58.335Z,212.00
2018-06-25T03:01:58.320Z,224.00
2018-06-25T03:02:58.301Z,232.00
2018-06-25T03:03:58.288Z,236.00
2018-06-25T03:04:58.271Z,240.00
2018-06-25T03:05:58.268Z,244.00
2018-06-25T03:06:58.239Z,244.00
2018-06-25T03:07:58.218Z,248.00
2018-06-25T03:08:58.202Z,256.00
2018-06-25T03:09:58.186Z,272.00
2018-06-25T03:10:58.166Z,288.00
2018-06-25T03:11:58.151Z,300.00
2018-06-25T03:12:58.133Z,308.00
2018-06-25T03:13:58.118Z,320.00
2018-06-25T03:14:58.100Z,324.00
2018-06-25T03:15:58.084Z,340.00
2018-06-25T03:16:58.068Z,356.00
2018-06-25T03:17:58.058Z,384.00
2018-06-25T03:18:58.035Z,420.00
2018-06-25T03:19:58.015Z,432.00
2018-06-25T03:20:58.000Z,452.00
2018-06-25T03:21:57.985Z,472.00
2018-06-25T03:22:57.964Z,484.00
2018-06-25T03:23:57.951Z,504.00
2018-06-25T03:24:57.933Z,544.00
2018-06-25T03:25:57.916Z,572.00
2018-06-25T03:26:57.900Z,564.00
2018-06-25T03:27:57.882Z,572.00
2018-06-25T03:28:57.874Z,568.00
2018-06-25T03:29:57.851Z,560.00
2018-06-25T03:30:57.833Z,564.00
2018-06-25T03:31:57.819Z,560.00
2018-06-25T03:32:57.801Z,604.00
2018-06-25T03:33:57.784Z,660.00
2018-06-25T03:34:57.767Z,660.00
2018-06-25T03:35:57.803Z,692.00
2018-06-25T03:36:57.735Z,732.00
2018-06-25T03:37:57.726Z,852.00
2018-06-25T03:38:57.701Z,932.00
2018-06-25T03:39:57.682Z,852.00
2018-06-25T03:40:57.668Z,876.00
2018-06-25T03:41:57.654Z,900.00
2018-06-25T03:42:57.633Z,1012.00
2018-06-25T03:43:57.616Z,1080.00
2018-06-25T03:44:57.600Z,1116.00
2018-06-25T03:45:57.585Z,1108.00
2018-06-25T03:46:57.570Z,1068.00
2018-06-25T03:47:57.550Z,1172.00
2018-06-25T03:48:57.536Z,1168.00
2018-06-25T03:49:57.517Z,1208.00
2018-06-25T03:50:57.501Z,1224.00
2018-06-25T03:51:57.484Z,1104.00
2018-06-25T03:52:57.470Z,1132.00
2018-06-25T03:53:57.452Z,1184.00
2018-06-25T03:54:57.435Z,1100.00
2018-06-25T03:55:57.418Z,1160.00
2018-06-25T03:56:57.400Z,1276.00
2018-06-25T03:57:57.383Z,1248.00
2018-06-25T03:58:57.366Z,1092.00
2018-06-25T03:59:57.352Z,1068.00
2018-06-25T04:00:57.398Z,1192.00
2018-06-25T04:01:57.320Z,1256.00
2018-06-25T04:02:57.304Z,1280.00
2018-06-25T04:03:57.287Z,1308.00
2018-06-25T04:04:57.271Z,1376.00
2018-06-25T04:05:57.257Z,1384.00
2018-06-25T04:06:57.237Z,1380.00
2018-06-25T04:07:57.222Z,1248.00
2018-06-25T04:08:57.203Z,1328.00
2018-06-25T04:09:57.194Z,1352.00
2018-06-25T04:10:57.170Z,1420.00
2018-06-25T04:11:57.153Z,1408.00
2018-06-25T04:12:57.143Z,1316.00
2018-06-25T04:13:57.124Z,1480.00
2018-06-25T04:14:57.105Z,1532.00
2018-06-25T04:15:57.089Z,1308.00
2018-06-25T04:16:57.080Z,1184.00
2018-06-25T04:17:57.059Z,1324.00
2018-06-25T04:18:57.039Z,1572.00
2018-06-25T04:19:57.024Z,1736.00
2018-06-25T04:20:57.007Z,1600.00
2018-06-25T04:21:56.992Z,1396.00
2018-06-25T04:22:56.974Z,1436.00
2018-06-25T04:23:56.958Z,1500.00
2018-06-25T04:24:56.942Z,1564.00
2018-06-25T04:25:56.926Z,1672.00
2018-06-25T04:26:56.910Z,1708.00
2018-06-25T04:27:56.893Z,1708.00
2018-06-25T04:28:56.882Z,1892.00
2018-06-25T04:29:56.862Z,2044.00
2018-06-25T04:30:56.848Z,1988.00
2018-06-25T04:31:56.828Z,1976.00
2018-06-25T04:32:56.810Z,1880.00
2018-06-25T04:33:56.797Z,1748.00
2018-06-25T04:34:56.780Z,1692.00
2018-06-25T04:35:56.765Z,1676.00
2018-06-25T04:36:56.747Z,1744.00
2018-06-25T04:37:56.756Z,1888.00
2018-06-25T04:38:56.717Z,1828.00
2018-06-25T04:39:56.701Z,1768.00
2018-06-25T04:40:56.684Z,1656.00
2018-06-25T04:41:56.667Z,1592.00
2018-06-25T04:42:56.653Z,1480.00
2018-06-25T04:43:56.639Z,1476.00
2018-06-25T04:44:56.621Z,1380.00
2018-06-25T04:45:56.606Z,1160.00
2018-06-25T04:46:56.589Z,1204.00
2018-06-25T04:47:56.573Z,1284.00
2018-06-25T04:48:56.557Z,1264.00
2018-06-25T04:49:56.542Z,1328.00
2018-06-25T04:50:56.522Z,1508.00
2018-06-25T04:51:56.508Z,1768.00
2018-06-25T04:52:56.493Z,1564.00
2018-06-25T04:53:56.478Z,1432.00
2018-06-25T04:54:56.463Z,1660.00
2018-06-25T04:55:56.444Z,1800.00
2018-06-25T04:56:56.427Z,2004.00
2018-06-25T04:57:56.411Z,2164.00
2018-06-25T04:58:56.395Z,2184.00
2018-06-25T04:59:56.380Z,2456.00
2018-06-25T05:00:56.399Z,2488.00
2018-06-25T05:01:56.349Z,2148.00
2018-06-25T05:02:56.335Z,1988.00
2018-06-25T05:03:56.317Z,1824.00
2018-06-25T05:04:56.309Z,1584.00
2018-06-25T05:05:56.285Z,1676.00
2018-06-25T05:06:56.268Z,1992.00
2018-06-25T05:07:56.251Z,2052.00
2018-06-25T05:08:56.260Z,1832.00
2018-06-25T05:09:56.224Z,2112.00
2018-06-25T05:10:56.209Z,2784.00
2018-06-25T05:11:56.187Z,3400.00
2018-06-25T05:12:56.173Z,3908.00
2018-06-25T05:13:56.158Z,3864.00
2018-06-25T05:14:56.140Z,3680.00
2018-06-25T05:15:56.126Z,3572.00
2018-06-25T05:16:56.111Z,3996.00
2018-06-25T05:17:56.095Z,3912.00
2018-06-25T05:18:56.076Z,4372.00
2018-06-25T05:19:56.061Z,4320.00
2018-06-25T05:20:56.047Z,4268.00
2018-06-25T05:21:56.031Z,4836.00
2018-06-25T05:22:56.021Z,4648.00
2018-06-25T05:23:55.999Z,3556.00
2018-06-25T05:24:55.984Z,3192.00
2018-06-25T05:25:55.972Z,4104.00
2018-06-25T05:26:55.953Z,5136.00
2018-06-25T05:27:55.939Z,5320.00
2018-06-25T05:28:55.919Z,5508.00
2018-06-25T05:29:55.910Z,4648.00
2018-06-25T05:30:55.888Z,4420.00
2018-06-25T05:31:55.874Z,4972.00
2018-06-25T05:32:55.860Z,5132.00
2018-06-25T05:33:55.843Z,4936.00
2018-06-25T05:34:55.827Z,3752.00
2018-06-25T05:35:55.816Z,4236.00
2018-06-25T05:36:55.798Z,4888.00
2018-06-25T05:37:55.784Z,4960.00
2018-06-25T05:38:55.770Z,4760.00
2018-06-25T05:39:55.749Z,4656.00
2018-06-25T05:40:55.741Z,4984.00
2018-06-25T05:41:55.720Z,5868.00
2018-06-25T05:42:55.707Z,5208.00
2018-06-25T05:43:55.691Z,4148.00
2018-06-25T05:44:55.677Z,3748.00
2018-06-25T05:45:55.664Z,3540.00
2018-06-25T05:46:55.647Z,3940.00
2018-06-25T05:47:55.633Z,4196.00
2018-06-25T05:48:55.677Z,4076.00
2018-06-25T05:49:55.599Z,3600.00
2018-06-25T05:50:55.593Z,3096.00
2018-06-25T05:51:55.568Z,2948.00
2018-06-25T05:52:55.555Z,3888.00
2018-06-25T05:53:55.539Z,5356.00
2018-06-25T05:54:55.522Z,5336.00
2018-06-25T05:55:55.509Z,4716.00
2018-06-25T05:56:55.493Z,4064.00
2018-06-25T05:57:55.478Z,3668.00
2018-06-25T05:58:55.503Z,3992.00
2018-06-25T05:59:55.448Z,4476.00
2018-06-25T06:00:55.433Z,4928.00
2018-06-25T06:01:55.419Z,4572.00
2018-06-25T06:02:55.403Z,3760.00
2018-06-25T06:03:55.395Z,3836.00
2018-06-25T06:04:55.371Z,4676.00
2018-06-25T06:05:55.358Z,5420.00
2018-06-25T06:06:55.343Z,5284.00
2018-06-25T06:07:55.326Z,4872.00
2018-06-25T06:08:55.313Z,4664.00
2018-06-25T06:09:55.300Z,4984.00
2018-06-25T06:10:55.282Z,5204.00
2018-06-25T06:11:55.269Z,5024.00
2018-06-25T06:12:55.256Z,5028.00
2018-06-25T06:13:55.250Z,6108.00
2018-06-25T06:14:55.235Z,6964.00
2018-06-25T06:15:55.208Z,5924.00
2018-06-25T06:16:55.199Z,4860.00
2018-06-25T06:17:55.180Z,5352.00
2018-06-25T06:18:55.162Z,6564.00
2018-06-25T06:19:55.150Z,7200.00
2018-06-25T06:20:55.135Z,8036.00
2018-06-25T06:21:55.120Z,8272.00
2018-06-25T06:22:55.102Z,7060.00
2018-06-25T06:23:55.091Z,6764.00
2018-06-25T06:24:55.076Z,5292.00
2018-06-25T06:25:55.068Z,4124.00
2018-06-25T06:26:55.045Z,3836.00
2018-06-25T06:27:55.030Z,4524.00
2018-06-25T06:28:55.014Z,6676.00
2018-06-25T06:29:55.001Z,8120.00
2018-06-25T06:30:54.990Z,6716.00
2018-06-25T06:31:54.969Z,7256.00
2018-06-25T06:32:54.958Z,8060.00
2018-06-25T06:33:54.943Z,7648.00
2018-06-25T06:34:54.927Z,6164.00
2018-06-25T06:35:54.911Z,5476.00
2018-06-25T06:36:54.897Z,5716.00
2018-06-25T06:37:54.882Z,6692.00
2018-06-25T06:38:54.867Z,7224.00
2018-06-25T06:39:54.900Z,7076.00
2018-06-25T06:40:54.842Z,5268.00
2018-06-25T06:41:54.824Z,4588.00
2018-06-25T06:42:54.810Z,5796.00
2018-06-25T06:43:54.797Z,6588.00
2018-06-25T06:44:54.840Z,5592.00
2018-06-25T06:45:54.767Z,4860.00
2018-06-25T06:46:54.754Z,5324.00
2018-06-25T06:47:54.740Z,7940.00
2018-06-25T06:48:54.728Z,10140.00
2018-06-25T06:49:54.709Z,9588.00
2018-06-25T06:50:54.693Z,8184.00
2018-06-25T06:51:54.679Z,8120.00
2018-06-25T06:52:54.669Z,5848.00
2018-06-25T06:53:54.651Z,4556.00
2018-06-25T06:54:54.639Z,4360.00
2018-06-25T06:55:54.623Z,5704.00
2018-06-25T06:56:54.607Z,6600.00
2018-06-25T06:57:54.595Z,7028.00
2018-06-25T06:58:54.591Z,6512.00
2018-06-25T06:59:54.567Z,7620.00
2018-06-25T07:00:54.549Z,7824.00
2018-06-25T07:01:54.538Z,7812.00
2018-06-25T07:02:54.521Z,7580.00
2018-06-25T07:03:54.509Z,8348.00
2018-06-25T07:04:54.493Z,7764.00
2018-06-25T07:05:54.478Z,7884.00
2018-06-25T07:06:54.464Z,7880.00
2018-06-25T07:07:54.449Z,6536.00
2018-06-25T07:08:54.435Z,5524.00
2018-06-25T07:09:54.421Z,5248.00
2018-06-25T07:10:54.415Z,6900.00
2018-06-25T07:11:54.394Z,8712.00
2018-06-25T07:12:54.376Z,9372.00
2018-06-25T07:13:54.366Z,9660.00
2018-06-25T07:14:54.347Z,10392.00
2018-06-25T07:15:54.341Z,12408.00
2018-06-25T07:16:54.321Z,12332.00
2018-06-25T07:17:54.309Z,12852.00
2018-06-25T07:18:54.293Z,12252.00
2018-06-25T07:19:54.281Z,12504.00
2018-06-25T07:20:54.268Z,12656.00
2018-06-25T07:21:54.254Z,12928.00
2018-06-25T07:22:54.238Z,11808.00
2018-06-25T07:23:54.223Z,11232.00
2018-06-25T07:24:54.230Z,11084.00
2018-06-25T07:25:54.197Z,10732.00
2018-06-25T07:26:54.182Z,11312.00
2018-06-25T07:27:54.168Z,8344.00
2018-06-25T07:28:54.188Z,7608.00
2018-06-25T07:29:54.142Z,8164.00
2018-06-25T07:30:54.126Z,12556.00
2018-06-25T07:31:54.114Z,12836.00
2018-06-25T07:32:54.101Z,11356.00
2018-06-25T07:33:54.085Z,13580.00
2018-06-25T07:34:54.072Z,13608.00
2018-06-25T07:35:54.069Z,11916.00
2018-06-25T07:36:54.046Z,8544.00
2018-06-25T07:37:54.038Z,8944.00
2018-06-25T07:38:54.018Z,10852.00
2018-06-25T07:39:54.003Z,10608.00
2018-06-25T07:40:53.996Z,11244.00
2018-06-25T07:41:53.983Z,11364.00
2018-06-25T07:42:53.968Z,9596.00
2018-06-25T07:43:53.954Z,8636.00
2018-06-25T07:44:53.942Z,9704.00
2018-06-25T07:45:53.929Z,8300.00
2018-06-25T07:46:53.916Z,6228.00
2018-06-25T07:47:53.901Z,7984.00
2018-06-25T07:48:53.893Z,7540.00
2018-06-25T07:49:53.874Z,8420.00
2018-06-25T07:50:53.864Z,8228.00
2018-06-25T07:51:53.846Z,8760.00
2018-06-25T07:52:53.840Z,8368.00
2018-06-25T07:53:53.824Z,8796.00
2018-06-25T07:54:53.828Z,9904.00
2018-06-25T07:55:53.793Z,9204.00
2018-06-25T07:56:53.789Z,6804.00
2018-06-25T07:57:53.768Z,7004.00
2018-06-25T07:58:53.754Z,6680.00
2018-06-25T07:59:53.741Z,6144.00
2018-06-25T08:00:53.729Z,5684.00
2018-06-25T08:01:53.716Z,7424.00
2018-06-25T08:02:53.711Z,8764.00
2018-06-25T08:03:53.690Z,6808.00
2018-06-25T08:04:53.677Z,6184.00
2018-06-25T08:05:53.665Z,5728.00
2018-06-25T08:06:53.667Z,6852.00
2018-06-25T08:07:53.639Z,7920.00
2018-06-25T08:08:53.625Z,6996.00
2018-06-25T08:09:53.670Z,6520.00
2018-06-25T08:10:53.598Z,6216.00
2018-06-25T08:11:53.585Z,7112.00
2018-06-25T08:12:53.583Z,7076.00
2018-06-25T08:13:53.559Z,7624.00
2018-06-25T08:14:53.543Z,7908.00
2018-06-25T08:15:53.539Z,7380.00
2018-06-25T08:16:53.518Z,8580.00
2018-06-25T08:17:53.508Z,8672.00
2018-06-25T08:18:53.491Z,7420.00
2018-06-25T08:19:53.477Z,8616.00
2018-06-25T08:20:53.464Z,11008.00
2018-06-25T08:21:53.454Z,9448.00
2018-06-25T08:22:53.439Z,7200.00
2018-06-25T08:23:53.424Z,7080.00
2018-06-25T08:24:53.410Z,6124.00
2018-06-25T08:25:53.398Z,5348.00
2018-06-25T08:26:53.386Z,4900.00
2018-06-25T08:27:53.370Z,5748.00
2018-06-25T08:28:53.361Z,5476.00
2018-06-25T08:29:53.375Z,4988.00
2018-06-25T08:30:53.332Z,4608.00
2018-06-25T08:31:53.322Z,3944.00
2018-06-25T08:32:53.304Z,3640.00
2018-06-25T08:33:53.320Z,3404.00
2018-06-25T08:34:53.275Z,4744.00
2018-06-25T08:35:53.270Z,6636.00
2018-06-25T08:36:53.275Z,7112.00
2018-06-25T08:37:53.237Z,6928.00
2018-06-25T08:38:53.227Z,7828.00
2018-06-25T08:39:53.208Z,8052.00
2018-06-25T08:40:53.196Z,7972.00
2018-06-25T08:41:53.184Z,7120.00
2018-06-25T08:42:53.169Z,8124.00
2018-06-25T08:43:53.154Z,7844.00
2018-06-25T08:44:53.141Z,7592.00
2018-06-25T08:45:53.133Z,8396.00
2018-06-25T08:46:53.113Z,9968.00
2018-06-25T08:47:53.104Z,11820.00
2018-06-25T08:48:53.089Z,14184.00
2018-06-25T08:49:53.076Z,10396.00
2018-06-25T08:50:53.064Z,7940.00
2018-06-25T08:51:53.101Z,8868.00
2018-06-25T08:52:53.041Z,10372.00
2018-06-25T08:53:53.028Z,8156.00
2018-06-25T08:54:53.007Z,6304.00
2018-06-25T08:55:52.993Z,6908.00
2018-06-25T08:56:53.028Z,7240.00
2018-06-25T08:57:52.967Z,8416.00
2018-06-25T08:58:52.955Z,9504.00
2018-06-25T08:59:52.948Z,7636.00
2018-06-25T09:00:52.925Z,7640.00
2018-06-25T09:01:52.913Z,8596.00
2018-06-25T09:02:52.899Z,8696.00
2018-06-25T09:03:52.886Z,7324.00
2018-06-25T09:04:52.915Z,7660.00
2018-06-25T09:05:52.861Z,7684.00
2018-06-25T09:06:52.847Z,7940.00
2018-06-25T09:07:52.833Z,10048.00
2018-06-25T09:08:52.821Z,15712.00
2018-06-25T09:09:52.843Z,35008.00
2018-06-25T09:10:52.794Z,16420.00
2018-06-25T09:11:52.782Z,12304.00
2018-06-25T09:12:52.769Z,12700.00
2018-06-25T09:13:52.755Z,18624.00
2018-06-25T09:14:52.744Z,9400.00
2018-06-25T09:15:52.730Z,9716.00
2018-06-25T09:16:52.717Z,12020.00
2018-06-25T09:17:52.707Z,9748.00
2018-06-25T09:18:52.694Z,11736.00
2018-06-25T09:19:52.678Z,14480.00
2018-06-25T09:20:52.667Z,18432.00
2018-06-25T09:21:52.654Z,19936.00
2018-06-25T09:22:52.641Z,17632.00
2018-06-25T09:23:52.627Z,112992.00
2018-06-25T09:24:52.613Z,110240.00
2018-06-25T09:25:52.602Z,69824.00
2018-06-25T09:26:52.591Z,18304.00
2018-06-25T09:27:52.611Z,17344.00
2018-06-25T09:28:52.567Z,25344.00
2018-06-25T09:29:52.558Z,119168.00
2018-06-25T09:30:52.545Z,57504.00
2018-06-25T09:31:52.536Z,22688.00
2018-06-25T09:32:52.522Z,31296.00
2018-06-25T09:33:52.512Z,35936.00
2018-06-25T09:34:52.503Z,10908.00
2018-06-25T09:35:52.492Z,10048.00
2018-06-25T09:36:52.483Z,10948.00
2018-06-25T09:37:52.481Z,14948.00
2018-06-25T09:38:52.461Z,58624.00
2018-06-25T09:39:52.453Z,14348.00
2018-06-25T09:40:52.526Z,15020.00
2018-06-25T09:41:52.436Z,33152.00
2018-06-25T09:42:52.475Z,32096.00
2018-06-25T09:43:52.416Z,19456.00
2018-06-25T09:44:52.406Z,16388.00
2018-06-25T09:45:52.456Z,20928.00
2018-06-25T09:46:52.406Z,39776.00
2018-06-25T09:47:52.377Z,75040.00
2018-06-25T09:48:52.371Z,32512.00
2018-06-25T09:49:52.359Z,15100.00
2018-06-25T09:50:52.350Z,16992.00
2018-06-25T09:51:52.342Z,42816.00
2018-06-25T09:52:52.332Z,89632.00
2018-06-25T09:53:52.324Z,110208.00
2018-06-25T09:54:52.378Z,99360.00
2018-06-25T09:55:52.307Z,34336.00
2018-06-25T09:56:52.298Z,12896.00
2018-06-25T09:57:52.293Z,12096.00
2018-06-25T09:58:52.282Z,11240.00
2018-06-25T09:59:52.274Z,12264.00
2018-06-25T10:00:52.268Z,12288.00
2018-06-25T10:01:52.260Z,12800.00
2018-06-25T10:02:52.252Z,18240.00
2018-06-25T10:03:52.243Z,26912.00
2018-06-25T10:04:52.236Z,31200.00
2018-06-25T10:05:52.230Z,30784.00
2018-06-25T10:06:52.266Z,106336.00
2018-06-25T10:07:52.210Z,82368.00
2018-06-25T10:08:52.204Z,107648.00
2018-06-25T10:09:52.197Z,115040.00
2018-06-25T10:10:52.196Z,23616.00
2018-06-25T10:11:52.184Z,18176.00
2018-06-25T10:12:52.176Z,15872.00
2018-06-25T10:13:52.176Z,118592.00
2018-06-25T10:14:52.160Z,45984.00
2018-06-25T10:15:52.155Z,116576.00
2018-06-25T10:16:52.150Z,112896.00
2018-06-25T10:17:52.142Z,46688.00
2018-06-25T10:18:52.141Z,28736.00
2018-06-25T10:19:52.131Z,93760.00
2018-06-25T10:20:52.125Z,15480.00
2018-06-25T10:21:52.120Z,13924.00
2018-06-25T10:22:52.148Z,15512.00
2018-06-25T10:23:52.107Z,15292.00
2018-06-25T10:24:52.104Z,53856.00
2018-06-25T10:25:52.098Z,107328.00
2018-06-25T10:26:52.090Z,113056.00
2018-06-25T10:27:52.084Z,118816.00
2018-06-25T10:28:52.078Z,96096.00
2018-06-25T10:29:52.073Z,108800.00
2018-06-25T10:30:52.068Z,104896.00
2018-06-25T10:31:52.066Z,61216.00
2018-06-25T10:32:52.060Z,106432.00
2018-06-25T10:33:52.057Z,77408.00
2018-06-25T10:34:52.115Z,17952.00
2018-06-25T10:35:52.048Z,14460.00
2018-06-25T10:36:52.042Z,13620.00
2018-06-25T10:37:52.042Z,34048.00
2018-06-25T10:38:52.041Z,15720.00
2018-06-25T10:39:52.029Z,20672.00
2018-06-25T10:40:52.033Z,117408.00
2018-06-25T10:41:52.024Z,123328.00
2018-06-25T10:42:52.016Z,36256.00
2018-06-25T10:43:52.011Z,31744.00
2018-06-25T10:44:52.010Z,46752.00
2018-06-25T10:45:52.003Z,81664.00
2018-06-25T10:46:52.000Z,113792.00
2018-06-25T10:47:51.996Z,112512.00
2018-06-25T10:48:51.989Z,69088.00
2018-06-25T10:49:51.992Z,112544.00
2018-06-25T10:50:51.982Z,54048.00
2018-06-25T10:51:51.978Z,55648.00
2018-06-25T10:52:51.975Z,107968.00
2018-06-25T10:53:51.976Z,112704.00
2018-06-25T10:54:51.971Z,15256.00
2018-06-25T10:55:51.965Z,12144.00
2018-06-25T10:56:51.966Z,12180.00
2018-06-25T10:57:51.964Z,30304.00
2018-06-25T10:58:51.958Z,81408.00
2018-06-25T10:59:52.122Z,84960.00
2018-06-25T11:00:51.949Z,22464.00
2018-06-25T11:01:51.947Z,23552.00
2018-06-25T11:02:51.946Z,114816.00
2018-06-25T11:03:51.947Z,33280.00
2018-06-25T11:04:51.935Z,22560.00
2018-06-25T11:05:51.979Z,37344.00
2018-06-25T11:06:51.942Z,20032.00
2018-06-25T11:07:52.000Z,14120.00
2018-06-25T11:08:51.924Z,14888.00
2018-06-25T11:09:51.921Z,33088.00
2018-06-25T11:10:51.915Z,92896.00
2018-06-25T11:11:51.914Z,18240.00
2018-06-25T11:12:52.010Z,14872.00
2018-06-25T11:13:51.910Z,15360.00
2018-06-25T11:14:51.906Z,17632.00
2018-06-25T11:15:51.905Z,26752.00
2018-06-25T11:16:51.896Z,83616.00
2018-06-25T11:17:51.893Z,76352.00
2018-06-25T11:18:51.886Z,23296.00
2018-06-25T11:19:51.886Z,72992.00
2018-06-25T11:20:51.884Z,42144.00
2018-06-25T11:21:51.877Z,24448.00
2018-06-25T11:22:51.873Z,26016.00
2018-06-25T11:23:51.867Z,36288.00
2018-06-25T11:24:51.866Z,122240.00
2018-06-25T11:25:51.864Z,116576.00
2018-06-25T11:26:51.908Z,109120.00
2018-06-25T11:27:51.952Z,50688.00
2018-06-25T11:28:51.851Z,54848.00
2018-06-25T11:29:51.846Z,41024.00
2018-06-25T11:30:51.842Z,114400.00
2018-06-25T11:31:51.841Z,82688.00
2018-06-25T11:32:51.837Z,115008.00
2018-06-25T11:33:51.832Z,114816.00
2018-06-25T11:34:51.832Z,111168.00
2018-06-25T11:35:51.826Z,112032.00
2018-06-25T11:36:51.829Z,110912.00
2018-06-25T11:37:51.830Z,112032.00
2018-06-25T11:38:51.819Z,111392.00
2018-06-25T11:39:51.816Z,112064.00
2018-06-25T11:40:51.828Z,107264.00
2018-06-25T11:41:51.897Z,67392.00
2018-06-25T11:42:51.816Z,111104.00
2018-06-25T11:43:51.812Z,33952.00
2018-06-25T11:44:51.813Z,23776.00
2018-06-25T11:45:51.806Z,18400.00
2018-06-25T11:46:51.803Z,116896.00
2018-06-25T11:47:51.803Z,114496.00
2018-06-25T11:48:51.804Z,97568.00
2018-06-25T11:49:51.803Z,16380.00
2018-06-25T11:50:51.800Z,17312.00
2018-06-25T11:51:51.800Z,19648.00
2018-06-25T11:52:51.804Z,25408.00
2018-06-25T11:53:51.796Z,21024.00
2018-06-25T11:54:51.792Z,21184.00
2018-06-25T11:55:51.789Z,16672.00
2018-06-25T11:56:51.786Z,20832.00
2018-06-25T11:57:51.785Z,42464.00
2018-06-25T11:58:51.785Z,22848.00
2018-06-25T11:59:51.781Z,21632.00
2018-06-25T12:00:51.781Z,23360.00
2018-06-25T12:01:51.781Z,23840.00
2018-06-25T12:02:51.847Z,23104.00
2018-06-25T12:03:51.778Z,22784.00
2018-06-25T12:04:51.768Z,22176.00
2018-06-25T12:05:51.766Z,22784.00
2018-06-25T12:06:51.765Z,24160.00
2018-06-25T12:07:51.765Z,19136.00
2018-06-25T12:08:51.759Z,41632.00
2018-06-25T12:09:51.756Z,104416.00
2018-06-25T12:10:51.758Z,92160.00
2018-06-25T12:11:51.763Z,23968.00
2018-06-25T12:12:51.747Z,24416.00
2018-06-25T12:13:51.746Z,25344.00